Time;durP1;ratioP1;P1;durP2;ratioP2;P2;SDS_P1;SDS_P2;PMS_P1;PMS_P2;Temp;Humidity;BMP_temperature;BMP_pressure;BME280_temperature;BME280_humidity;BME280_pressure;Samples;Min_cycle;Max_cycle;Signal;HPM_P1;HPM_P2
2021/06/05 00:01:28;;;;;;;105.07;60.90;;;17.70;91.20;;;;;;5043350;28;20049;-52
2021/06/05 00:03:55;;;;;;;101.30;57.55;;;17.70;91.50;;;;;;5039296;28;20056;-50
2021/06/05 00:06:23;;;;;;;100.80;57.33;;;17.60;91.30;;;;;;5053286;28;20080;-49
2021/06/05 00:08:50;;;;;;;103.65;59.05;;;17.70;91.30;;;;;;5052921;28;20052;-52
2021/06/05 00:11:18;;;;;;;96.30;57.42;;;17.70;91.40;;;;;;5053607;28;20041;-50
2021/06/05 00:13:49;;;;;;;96.45;57.00;;;17.70;91.30;;;;;;5053017;28;20062;-51
2021/06/05 00:16:22;;;;;;;102.88;58.42;;;17.70;91.40;;;;;;5052502;28;20098;-52
2021/06/05 00:18:48;;;;;;;92.28;54.78;;;17.70;91.30;;;;;;5052817;28;20060;-49
2021/06/05 00:21:16;;;;;;;103.00;59.63;;;17.70;91.30;;;;;;5043483;28;20086;-53
2021/06/05 00:23:42;;;;;;;103.18;56.92;;;17.70;91.50;;;;;;5048322;28;20136;-48
2021/06/05 00:26:07;;;;;;;102.22;57.95;;;17.60;91.40;;;;;;5052410;28;20524;-48
2021/06/05 00:28:33;;;;;;;96.95;57.35;;;17.60;91.40;;;;;;5041581;28;20084;-51
2021/06/05 00:30:59;;;;;;;96.88;55.70;;;17.60;91.40;;;;;;5039966;28;20550;-49
2021/06/05 00:33:25;;;;;;;96.88;57.22;;;17.60;91.40;;;;;;5053624;28;20083;-53
2021/06/05 00:35:51;;;;;;;97.70;56.70;;;17.60;91.40;;;;;;5044276;28;20044;-52
2021/06/05 00:38:18;;;;;;;96.50;56.33;;;17.60;91.40;;;;;;5053215;28;20095;-49
2021/06/05 00:40:47;;;;;;;97.65;54.80;;;17.60;91.40;;;;;;5052531;28;20051;-52
2021/06/05 00:43:15;;;;;;;94.22;53.78;;;17.60;91.40;;;;;;5052353;28;20057;-52
2021/06/05 00:45:43;;;;;;;91.90;53.90;;;17.50;91.40;;;;;;5052584;28;20047;-48
2021/06/05 00:48:10;;;;;;;95.55;54.75;;;17.60;91.50;;;;;;5051344;28;20507;-52
2021/06/05 00:50:38;;;;;;;97.63;55.40;;;17.60;91.50;;;;;;5051901;28;20443;-51
2021/06/05 00:53:05;;;;;;;92.43;52.88;;;17.60;91.50;;;;;;5052766;28;20542;-53
2021/06/05 00:55:34;;;;;;;86.95;51.90;;;17.50;91.40;;;;;;5049352;28;20412;-51
2021/06/05 00:57:59;;;;;;;86.20;51.10;;;17.50;91.40;;;;;;5050178;28;20048;-48
2021/06/05 01:00:47;;;;;;;86.00;50.70;;;17.50;91.40;;;;;;5043729;28;20049;-53
2021/06/05 01:03:14;;;;;;;82.20;49.28;;;17.50;91.70;;;;;;5046653;28;20063;-52
2021/06/05 01:05:41;;;;;;;85.32;50.22;;;17.50;91.40;;;;;;5049706;28;20099;-51
2021/06/05 01:08:23;;;;;;;80.43;48.25;;;17.40;91.40;;;;;;5052428;28;20421;-50
2021/06/05 01:10:53;;;;;;;88.18;48.65;;;17.40;91.50;;;;;;5047913;28;20071;-51
2021/06/05 01:13:30;;;;;;;82.35;48.00;;;17.40;91.50;;;;;;5052289;28;20041;-50
2021/06/05 01:16:00;;;;;;;89.85;48.97;;;17.40;91.60;;;;;;5049589;28;20497;-48
2021/06/05 01:18:42;;;;;;;78.97;46.20;;;17.40;91.50;;;;;;5039666;28;20493;-50
2021/06/05 01:21:30;;;;;;;89.35;48.25;;;17.30;91.50;;;;;;5051554;28;20044;-53
2021/06/05 01:24:28;;;;;;;88.88;49.40;;;17.30;91.50;;;;;;5049579;28;20079;-51
2021/06/05 01:27:09;;;;;;;82.40;48.10;;;17.30;91.60;;;;;;5045246;28;20040;-53
2021/06/05 01:29:39;;;;;;;78.05;46.20;;;17.30;91.50;;;;;;5042901;28;20526;-53
2021/06/05 01:32:11;;;;;;;87.65;48.97;;;17.30;91.50;;;;;;5051943;28;20116;-52
2021/06/05 01:34:44;;;;;;;76.43;45.38;;;17.30;91.60;;;;;;5048319;28;20127;-50
2021/06/05 01:37:12;;;;;;;84.57;47.58;;;17.20;91.60;;;;;;5054107;28;20041;-50
2021/06/05 01:39:42;;;;;;;84.90;47.63;;;17.30;91.70;;;;;;5036641;28;20072;-52
2021/06/05 01:42:12;;;;;;;86.95;49.63;;;17.30;91.60;;;;;;5049816;28;20040;-48
2021/06/05 01:44:39;;;;;;;87.75;48.58;;;17.20;91.60;;;;;;5053967;28;20048;-50
2021/06/05 01:47:05;;;;;;;90.63;49.70;;;17.20;91.70;;;;;;5051761;28;20045;-51
2021/06/05 01:49:31;;;;;;;84.10;49.33;;;17.20;91.80;;;;;;5044248;28;20599;-49
2021/06/05 01:52:08;;;;;;;91.28;49.25;;;17.20;91.80;;;;;;5046716;28;20132;-50
2021/06/05 01:54:42;;;;;;;79.57;45.90;;;17.20;91.70;;;;;;5050866;28;20049;-53
2021/06/05 01:57:12;;;;;;;82.18;47.67;;;17.10;92.00;;;;;;5046904;28;20083;-51
2021/06/05 01:59:37;;;;;;;82.65;47.35;;;17.10;91.80;;;;;;5050609;28;20057;-51
2021/06/05 02:02:06;;;;;;;86.07;47.72;;;17.10;91.80;;;;;;5050454;28;20386;-51
2021/06/05 02:04:32;;;;;;;87.43;47.65;;;17.00;91.70;;;;;;5044729;28;20044;-48
2021/06/05 02:06:58;;;;;;;86.13;48.08;;;17.10;91.80;;;;;;5050954;28;20401;-50
2021/06/05 02:09:26;;;;;;;90.15;50.30;;;17.10;92.00;;;;;;5050419;28;20571;-52
2021/06/05 02:12:02;;;;;;;86.43;47.97;;;17.00;92.00;;;;;;5051055;28;20041;-51
2021/06/05 02:14:33;;;;;;;82.97;47.92;;;17.00;92.00;;;;;;5048589;28;20041;-50
2021/06/05 02:17:00;;;;;;;91.63;48.70;;;17.00;91.90;;;;;;5050160;28;20040;-50
2021/06/05 02:19:36;;;;;;;88.25;49.15;;;17.00;91.90;;;;;;5046815;28;20049;-51
2021/06/05 02:22:05;;;;;;;93.38;49.00;;;17.00;92.00;;;;;;5035307;28;20475;-52
2021/06/05 02:24:43;;;;;;;95.90;50.15;;;17.00;92.00;;;;;;5045590;28;20559;-51
2021/06/05 02:27:11;;;;;;;97.43;50.10;;;17.00;92.10;;;;;;5048906;28;20040;-51
2021/06/05 02:29:40;;;;;;;91.60;49.38;;;17.00;92.00;;;;;;5046510;28;20041;-53
2021/06/05 02:32:09;;;;;;;100.68;50.75;;;17.00;92.00;;;;;;5014846;28;20045;-51
2021/06/05 02:34:36;;;;;;;100.57;49.47;;;16.90;92.00;;;;;;5045986;28;20045;-50
2021/06/05 02:37:08;;;;;;;104.80;51.90;;;16.90;92.10;;;;;;5034931;28;20037;-50
2021/06/05 02:39:34;;;;;;;111.47;50.58;;;16.90;92.10;;;;;;5046359;28;20059;-52
2021/06/05 02:42:00;;;;;;;101.55;49.08;;;16.80;92.10;;;;;;5027567;28;20044;-51
2021/06/05 02:44:30;;;;;;;98.93;48.50;;;16.80;92.10;;;;;;5049882;28;20049;-52
2021/06/05 02:46:58;;;;;;;99.10;47.35;;;16.70;92.10;;;;;;5049846;28;20037;-48
2021/06/05 02:49:31;;;;;;;105.50;49.30;;;16.70;92.20;;;;;;5043278;28;20061;-52
2021/06/05 02:52:02;;;;;;;92.20;45.47;;;16.70;92.30;;;;;;5051090;28;20052;-52
2021/06/05 02:54:28;;;;;;;92.05;45.13;;;16.70;92.30;;;;;;5046219;28;20041;-50
2021/06/05 02:56:56;;;;;;;89.40;44.17;;;16.60;92.30;;;;;;5042647;28;20142;-52
2021/06/05 02:59:23;;;;;;;87.28;44.05;;;16.60;92.30;;;;;;5043586;28;20141;-53
2021/06/05 03:01:50;;;;;;;81.05;41.15;;;16.50;92.40;;;;;;5048720;28;20073;-50
2021/06/05 03:04:15;;;;;;;82.18;40.55;;;16.50;92.50;;;;;;5050169;28;20091;-48
2021/06/05 03:06:41;;;;;;;84.78;42.55;;;16.50;92.50;;;;;;5049796;28;20048;-51
2021/06/05 03:09:11;;;;;;;83.53;41.45;;;16.50;92.40;;;;;;5050451;28;20052;-52
2021/06/05 03:11:37;;;;;;;84.97;41.55;;;16.50;92.60;;;;;;5038674;28;20041;-52
2021/06/05 03:14:03;;;;;;;89.85;41.50;;;16.40;92.40;;;;;;5051409;28;20123;-52
2021/06/05 03:16:28;;;;;;;86.43;40.58;;;16.40;92.50;;;;;;5040660;28;20041;-50
2021/06/05 03:18:55;;;;;;;78.10;38.67;;;16.40;92.50;;;;;;5050498;28;20041;-53
2021/06/05 03:21:21;;;;;;;83.60;41.20;;;16.30;92.50;;;;;;5049662;28;20060;-48
2021/06/05 03:23:49;;;;;;;86.97;40.30;;;16.30;92.50;;;;;;5050154;28;20069;-50
2021/06/05 03:26:16;;;;;;;95.18;41.63;;;16.30;92.80;;;;;;5049681;28;20045;-52
2021/06/05 03:28:53;;;;;;;92.07;42.30;;;16.30;92.80;;;;;;5050421;28;20037;-50
2021/06/05 03:31:21;;;;;;;85.10;39.92;;;16.30;93.00;;;;;;5047346;28;20041;-52
2021/06/05 03:33:48;;;;;;;81.78;39.85;;;16.30;93.00;;;;;;5046710;28;20051;-50
2021/06/05 03:36:15;;;;;;;91.80;40.78;;;16.20;93.00;;;;;;5041890;28;20559;-52
2021/06/05 03:38:41;;;;;;;99.40;42.05;;;16.20;93.00;;;;;;5050220;28;20107;-50
2021/06/05 03:41:08;;;;;;;128.85;42.55;;;16.20;93.10;;;;;;5049644;28;20040;-50
2021/06/05 03:43:34;;;;;;;98.18;37.92;;;16.20;93.50;;;;;;5050176;28;20041;-48
2021/06/05 03:46:00;;;;;;;77.32;33.80;;;16.20;93.40;;;;;;5045963;28;20594;-50
2021/06/05 03:48:26;;;;;;;70.07;32.38;;;16.10;93.40;;;;;;5042631;28;20092;-51
2021/06/05 03:50:54;;;;;;;75.55;32.65;;;16.10;93.80;;;;;;5045635;28;20488;-53
2021/06/05 03:53:22;;;;;;;103.07;34.92;;;16.30;93.40;;;;;;5053873;28;20428;-49
2021/06/05 03:55:48;;;;;;;70.57;32.45;;;16.20;93.20;;;;;;5052301;28;20045;-49
2021/06/05 03:58:16;;;;;;;76.93;32.08;;;16.10;93.60;;;;;;5053830;28;20037;-53
2021/06/05 04:00:44;;;;;;;73.00;30.75;;;16.10;93.60;;;;;;5052789;28;20523;-51
2021/06/05 04:03:12;;;;;;;67.80;30.52;;;15.90;93.70;;;;;;5053465;28;20041;-52
2021/06/05 04:05:39;;;;;;;67.05;28.92;;;15.90;93.70;;;;;;5043539;28;20076;-51
2021/06/05 04:08:06;;;;;;;79.93;28.63;;;15.90;93.90;;;;;;5046162;28;20087;-53
2021/06/05 04:10:33;;;;;;;34.30;18.77;;;15.90;94.00;;;;;;5053076;28;20037;-53
2021/06/05 04:12:59;;;;;;;38.83;20.85;;;15.90;94.00;;;;;;5053429;28;20119;-49
2021/06/05 04:15:26;;;;;;;30.27;17.90;;;15.80;94.00;;;;;;5052922;28;20045;-51
2021/06/05 04:18:28;;;;;;;27.60;16.48;;;15.80;93.90;;;;;;5040980;28;20045;-49
2021/06/05 04:20:54;;;;;;;27.27;16.17;;;15.70;93.90;;;;;;5049331;28;20039;-53
2021/06/05 04:23:20;;;;;;;27.65;15.70;;;15.70;93.90;;;;;;5050439;28;20028;-52
2021/06/05 04:25:46;;;;;;;26.02;16.23;;;15.60;93.90;;;;;;5049380;28;20034;-51
2021/06/05 04:28:14;;;;;;;26.40;16.38;;;15.60;93.90;;;;;;5046876;28;20114;-53
2021/06/05 04:30:42;;;;;;;25.58;15.35;;;15.70;94.00;;;;;;5053392;28;20136;-51
2021/06/05 04:33:10;;;;;;;22.42;14.55;;;15.60;94.10;;;;;;5051435;28;20041;-53
2021/06/05 04:35:57;;;;;;;22.85;13.55;;;15.80;93.60;;;;;;5044582;28;20041;-52
2021/06/05 04:38:23;;;;;;;21.15;13.45;;;15.70;93.60;;;;;;5046492;28;20068;-52
2021/06/05 04:40:50;;;;;;;20.95;13.52;;;15.60;93.70;;;;;;5047359;28;20497;-51
2021/06/05 04:43:17;;;;;;;21.73;13.18;;;15.50;93.80;;;;;;5050789;28;20044;-50
2021/06/05 04:45:43;;;;;;;22.70;14.45;;;15.50;93.80;;;;;;5051885;28;20041;-51
2021/06/05 04:48:10;;;;;;;22.83;14.77;;;15.50;93.80;;;;;;5051536;28;20068;-49
2021/06/05 04:50:37;;;;;;;22.55;14.65;;;15.40;93.80;;;;;;5051804;28;20386;-50
2021/06/05 04:53:04;;;;;;;22.35;14.15;;;15.40;93.90;;;;;;5052296;28;20420;-52
2021/06/05 04:55:30;;;;;;;17.30;12.60;;;15.40;93.80;;;;;;5049376;28;20424;-48
2021/06/05 04:57:56;;;;;;;19.63;13.70;;;15.40;93.80;;;;;;5046708;28;20048;-50
2021/06/05 05:00:29;;;;;;;19.95;13.55;;;15.40;93.60;;;;;;5051402;28;20124;-53
2021/06/05 05:02:56;;;;;;;18.80;12.32;;;15.30;93.80;;;;;;5051111;28;20527;-51
2021/06/05 05:05:22;;;;;;;19.10;12.82;;;15.30;93.80;;;;;;5049626;28;20045;-52
2021/06/05 05:07:49;;;;;;;20.17;13.32;;;15.30;94.00;;;;;;5045272;28;20044;-52
2021/06/05 05:10:18;;;;;;;15.80;12.20;;;15.30;93.90;;;;;;5038770;28;20049;-50
2021/06/05 05:12:43;;;;;;;17.45;11.90;;;15.40;93.90;;;;;;5052150;28;20048;-52
2021/06/05 05:15:14;;;;;;;19.45;12.57;;;15.40;93.90;;;;;;5050613;28;20405;-50
2021/06/05 05:17:39;;;;;;;18.10;12.27;;;15.40;93.80;;;;;;5048669;28;20377;-51
2021/06/05 05:20:08;;;;;;;16.50;11.65;;;15.30;93.80;;;;;;5040130;28;20064;-52
2021/06/05 05:22:35;;;;;;;15.65;11.75;;;15.30;93.90;;;;;;5052606;28;20131;-50
2021/06/05 05:25:01;;;;;;;17.17;11.23;;;15.30;93.90;;;;;;5048788;28;20044;-52
2021/06/05 05:27:27;;;;;;;15.80;11.80;;;15.30;94.00;;;;;;5045531;28;20413;-52
2021/06/05 05:29:52;;;;;;;19.50;12.93;;;15.40;93.70;;;;;;5045041;28;20124;-52
2021/06/05 05:32:18;;;;;;;16.00;11.38;;;15.40;93.60;;;;;;5046996;28;20120;-50
2021/06/05 05:34:43;;;;;;;18.55;12.25;;;15.60;93.10;;;;;;5036378;28;20044;-49
2021/06/05 05:37:09;;;;;;;19.42;12.23;;;15.50;93.40;;;;;;5045823;28;20512;-51
2021/06/05 05:39:35;;;;;;;17.58;12.07;;;15.30;93.40;;;;;;5043729;28;20124;-51
2021/06/05 05:42:00;;;;;;;18.60;12.15;;;15.30;93.80;;;;;;5050616;28;20413;-50
2021/06/05 05:44:26;;;;;;;17.75;10.95;;;15.20;94.20;;;;;;5037859;28;20057;-52
2021/06/05 05:46:51;;;;;;;16.17;10.75;;;15.20;94.00;;;;;;5045702;28;20453;-52
2021/06/05 05:49:17;;;;;;;17.83;11.20;;;15.40;93.80;;;;;;5050590;28;20131;-50
2021/06/05 05:51:44;;;;;;;16.63;11.40;;;15.30;93.80;;;;;;5044323;28;20045;-53
2021/06/05 05:54:10;;;;;;;15.30;10.77;;;15.40;93.80;;;;;;5041044;28;20057;-50
2021/06/05 05:56:36;;;;;;;15.98;10.40;;;15.30;93.90;;;;;;5040159;28;20635;-52
2021/06/05 05:59:03;;;;;;;13.25;9.18;;;15.20;94.20;;;;;;5049747;28;20174;-49
2021/06/05 06:01:31;;;;;;;15.05;10.55;;;15.20;94.30;;;;;;5051392;28;20717;-51
2021/06/05 06:03:57;;;;;;;13.50;9.77;;;15.20;94.40;;;;;;5049064;28;20040;-52
2021/06/05 06:06:26;;;;;;;11.32;8.60;;;15.10;94.50;;;;;;5049948;28;20036;-51
2021/06/05 06:08:52;;;;;;;13.10;9.27;;;15.20;94.60;;;;;;5037959;28;20556;-52
2021/06/05 06:11:18;;;;;;;12.15;8.85;;;15.20;94.40;;;;;;5049383;28;20459;-50
2021/06/05 06:13:44;;;;;;;13.82;8.55;;;15.20;94.60;;;;;;5041330;28;20048;-48
2021/06/05 06:16:12;;;;;;;12.40;8.60;;;15.30;94.60;;;;;;5042861;28;20525;-52
2021/06/05 06:18:39;;;;;;;10.30;7.90;;;15.30;94.50;;;;;;5040996;28;20036;-52
2021/06/05 06:21:08;;;;;;;13.57;8.52;;;15.30;94.50;;;;;;5043737;28;20038;-51
2021/06/05 06:23:36;;;;;;;10.85;7.57;;;15.30;94.60;;;;;;5048422;28;20068;-52
2021/06/05 06:26:05;;;;;;;9.32;7.35;;;15.40;94.70;;;;;;5040950;28;20091;-52
2021/06/05 06:28:35;;;;;;;12.63;8.10;;;15.50;94.10;;;;;;5032828;28;20041;-50
2021/06/05 06:31:02;;;;;;;12.40;8.57;;;15.50;94.00;;;;;;5050589;28;20049;-53
2021/06/05 06:33:28;;;;;;;11.55;8.27;;;15.40;94.30;;;;;;5036821;28;20874;-51
2021/06/05 06:35:55;;;;;;;10.75;7.65;;;15.40;94.60;;;;;;5049193;28;20037;-50
2021/06/05 06:38:34;;;;;;;10.23;7.63;;;15.50;94.70;;;;;;5051036;28;20061;-50
2021/06/05 06:41:01;;;;;;;10.30;7.68;;;15.50;94.80;;;;;;5047406;28;20137;-51
2021/06/05 06:43:29;;;;;;;10.00;7.40;;;15.50;94.60;;;;;;5043402;28;20063;-51
2021/06/05 06:45:55;;;;;;;10.73;7.97;;;15.50;94.60;;;;;;5047478;28;20143;-52
2021/06/05 06:48:22;;;;;;;11.82;7.88;;;15.50;94.80;;;;;;5046742;28;20041;-50
2021/06/05 06:50:48;;;;;;;9.98;7.10;;;15.60;94.70;;;;;;5049263;28;20057;-50
2021/06/05 06:53:15;;;;;;;9.15;6.90;;;15.70;94.50;;;;;;5050728;28;20369;-51
2021/06/05 06:55:41;;;;;;;10.45;6.97;;;15.70;94.70;;;;;;5049832;28;20108;-52
2021/06/05 06:58:07;;;;;;;8.75;6.40;;;15.70;94.70;;;;;;5050362;28;20431;-49
2021/06/05 07:00:36;;;;;;;9.20;6.22;;;15.80;94.70;;;;;;5050431;28;20079;-52
2021/06/05 07:03:02;;;;;;;11.52;6.28;;;15.80;94.80;;;;;;5050290;28;20555;-48
2021/06/05 07:05:28;;;;;;;8.98;6.35;;;15.90;94.90;;;;;;5049727;28;20037;-52
2021/06/05 07:08:15;;;;;;;8.45;6.40;;;15.90;94.80;;;;;;5051210;28;20041;-50
2021/06/05 07:10:41;;;;;;;8.75;6.07;;;16.10;95.00;;;;;;5052984;28;20049;-51
2021/06/05 07:13:07;;;;;;;9.27;6.32;;;16.20;94.70;;;;;;5054888;28;20064;-50
2021/06/05 07:15:33;;;;;;;8.27;6.38;;;16.20;94.50;;;;;;5031273;28;20124;-48
2021/06/05 07:18:01;;;;;;;7.75;6.30;;;16.20;94.70;;;;;;5029556;28;20493;-49
2021/06/05 07:20:28;;;;;;;7.35;6.20;;;16.20;94.70;;;;;;5047744;28;20075;-49
2021/06/05 07:22:53;;;;;;;8.73;6.88;;;16.20;94.50;;;;;;5048152;28;20087;-53
2021/06/05 07:25:19;;;;;;;10.25;8.02;;;16.30;94.50;;;;;;5050651;28;20044;-49
2021/06/05 07:27:45;;;;;;;9.23;7.20;;;16.30;94.60;;;;;;5052840;28;20129;-49
2021/06/05 07:30:11;;;;;;;9.35;6.80;;;16.40;94.60;;;;;;5052353;28;20493;-48
2021/06/05 07:32:37;;;;;;;10.20;6.40;;;16.40;94.60;;;;;;5034676;28;20041;-49
2021/06/05 07:35:03;;;;;;;8.73;7.00;;;16.40;94.70;;;;;;5049838;28;20120;-48
2021/06/05 07:37:29;;;;;;;9.05;6.60;;;16.50;94.50;;;;;;5053722;28;20044;-50
2021/06/05 07:39:55;;;;;;;11.73;7.97;;;16.60;94.60;;;;;;5052973;28;20047;-51
2021/06/05 07:42:20;;;;;;;11.95;9.65;;;16.60;94.60;;;;;;5053266;28;20523;-51
2021/06/05 07:44:46;;;;;;;9.98;8.38;;;16.70;94.60;;;;;;5050878;28;20501;-52
2021/06/05 07:47:11;;;;;;;10.25;8.35;;;16.90;94.80;;;;;;5049310;28;20077;-48
2021/06/05 07:49:39;;;;;;;9.07;7.75;;;17.10;94.70;;;;;;5049476;28;20040;-52
2021/06/05 07:52:09;;;;;;;10.80;8.55;;;17.20;94.30;;;;;;5051554;28;20116;-52
2021/06/05 07:54:34;;;;;;;9.93;8.73;;;17.20;94.30;;;;;;5051742;28;20187;-50
2021/06/05 07:57:00;;;;;;;10.75;8.57;;;17.30;94.40;;;;;;5053275;28;20229;-51
2021/06/05 07:59:27;;;;;;;10.80;8.35;;;17.40;94.50;;;;;;5052488;28;20053;-48
2021/06/05 08:01:54;;;;;;;8.35;7.32;;;17.40;94.30;;;;;;5051174;28;20057;-51
2021/06/05 08:04:21;;;;;;;9.40;7.55;;;17.50;93.90;;;;;;5051573;28;20045;-51
2021/06/05 08:06:49;;;;;;;9.32;8.15;;;17.60;93.50;;;;;;5050429;28;20025;-52
2021/06/05 08:09:15;;;;;;;9.18;7.22;;;17.60;93.30;;;;;;5052903;28;20112;-52
2021/06/05 08:11:41;;;;;;;8.65;7.25;;;17.70;93.10;;;;;;5053076;28;20060;-51
2021/06/05 08:14:08;;;;;;;10.02;7.47;;;17.60;93.00;;;;;;5053054;28;20037;-49
2021/06/05 08:16:36;;;;;;;9.10;8.02;;;17.50;93.40;;;;;;5051929;28;20041;-51
2021/06/05 08:19:05;;;;;;;8.40;7.50;;;17.50;93.40;;;;;;5052600;28;20102;-53
2021/06/05 08:21:31;;;;;;;8.30;7.40;;;17.40;93.60;;;;;;5052642;28;20037;-49
2021/06/05 08:23:56;;;;;;;9.35;7.88;;;17.40;93.80;;;;;;5051074;28;20079;-50
2021/06/05 08:26:22;;;;;;;10.93;8.52;;;17.50;93.90;;;;;;5052021;28;20069;-49
2021/06/05 08:28:48;;;;;;;9.65;8.52;;;17.50;93.90;;;;;;5050067;28;20072;-50
2021/06/05 08:31:16;;;;;;;9.18;7.68;;;17.60;94.30;;;;;;5052363;28;20428;-51
2021/06/05 08:33:42;;;;;;;8.35;7.38;;;17.70;94.40;;;;;;5053006;28;20036;-51
2021/06/05 08:36:09;;;;;;;9.70;7.60;;;17.70;94.20;;;;;;5051628;28;20037;-49
2021/06/05 08:38:36;;;;;;;9.63;8.63;;;17.70;94.10;;;;;;5051392;28;20136;-53
2021/06/05 08:41:16;;;;;;;8.82;7.93;;;17.80;94.10;;;;;;5049673;28;20076;-53
2021/06/05 08:43:46;;;;;;;9.27;8.27;;;17.80;94.20;;;;;;5048899;28;20404;-51
2021/06/05 08:46:16;;;;;;;11.63;8.75;;;17.80;94.30;;;;;;5050212;28;20037;-52
2021/06/05 08:48:42;;;;;;;9.60;7.90;;;17.90;94.30;;;;;;5047825;28;20044;-52
2021/06/05 08:51:19;;;;;;;10.98;9.20;;;17.90;94.20;;;;;;5050876;28;20048;-53
2021/06/05 08:53:45;;;;;;;8.77;7.07;;;18.00;94.20;;;;;;5047772;28;20542;-51
2021/06/05 08:56:16;;;;;;;8.27;7.35;;;18.00;94.10;;;;;;5051517;28;20036;-52
2021/06/05 08:58:50;;;;;;;7.70;6.72;;;18.10;94.10;;;;;;5052076;28;20036;-51
2021/06/05 09:01:35;;;;;;;8.30;6.85;;;18.10;93.90;;;;;;5049613;28;20028;-53
2021/06/05 09:04:16;;;;;;;8.43;7.47;;;18.10;93.80;;;;;;5047906;28;20048;-51
2021/06/05 09:07:02;;;;;;;8.38;7.43;;;18.10;93.80;;;;;;5049114;28;20095;-53
2021/06/05 09:09:37;;;;;;;10.05;8.50;;;18.10;93.70;;;;;;5044623;28;20036;-51
2021/06/05 09:12:04;;;;;;;8.00;7.20;;;18.10;93.80;;;;;;5026595;28;20049;-53
2021/06/05 09:14:31;;;;;;;7.63;6.80;;;18.10;93.90;;;;;;5041019;28;20036;-52
2021/06/05 09:16:59;;;;;;;9.05;7.93;;;18.20;93.80;;;;;;5044096;28;20045;-54
2021/06/05 09:19:33;;;;;;;8.63;7.43;;;18.20;93.80;;;;;;5045720;28;20036;-51
2021/06/05 09:22:07;;;;;;;9.65;8.20;;;18.30;94.00;;;;;;5042738;28;20033;-53
2021/06/05 09:24:35;;;;;;;12.35;8.82;;;18.30;93.90;;;;;;5039569;28;20041;-49
2021/06/05 09:27:18;;;;;;;15.52;13.93;;;18.30;93.80;;;;;;5045071;28;20622;-52
2021/06/05 09:29:53;;;;;;;20.25;18.15;;;18.40;94.00;;;;;;5035525;28;20042;-52
2021/06/05 09:32:26;;;;;;;23.48;20.83;;;18.40;93.90;;;;;;5043145;28;20041;-50
2021/06/05 09:35:10;;;;;;;23.92;20.58;;;18.40;94.00;;;;;;5042354;28;20088;-53
2021/06/05 09:37:39;;;;;;;24.80;21.90;;;18.40;93.80;;;;;;5030355;28;20056;-53
2021/06/05 09:40:30;;;;;;;24.30;21.83;;;18.30;93.80;;;;;;5038705;28;20529;-55
2021/06/05 09:43:18;;;;;;;31.38;27.98;;;18.30;93.80;;;;;;5041904;28;20493;-50
2021/06/05 09:45:46;;;;;;;31.70;28.33;;;18.30;94.00;;;;;;5036508;28;20043;-53
2021/06/05 09:48:27;;;;;;;25.67;23.17;;;18.30;94.10;;;;;;5044172;28;20167;-51
2021/06/05 09:50:57;;;;;;;35.10;31.50;;;18.30;93.90;;;;;;5041489;28;20052;-53
2021/06/05 09:53:30;;;;;;;19.77;17.88;;;18.40;93.90;;;;;;5039103;28;20122;-51
2021/06/05 09:56:01;;;;;;;19.08;17.17;;;18.30;93.80;;;;;;5038831;28;20039;-53
2021/06/05 09:58:47;;;;;;;21.25;19.15;;;18.30;93.80;;;;;;5037799;28;20052;-52
2021/06/05 10:01:21;;;;;;;21.52;19.38;;;18.40;93.80;;;;;;5039561;28;20170;-54
2021/06/05 10:03:49;;;;;;;20.98;18.98;;;18.40;93.90;;;;;;5044840;28;20049;-52
2021/06/05 10:06:19;;;;;;;20.45;18.55;;;18.40;93.80;;;;;;5043287;28;20037;-53
2021/06/05 10:08:47;;;;;;;20.02;18.20;;;18.40;93.80;;;;;;5034131;28;20665;-52
2021/06/05 10:11:33;;;;;;;22.42;20.27;;;18.40;93.50;;;;;;5042569;28;20065;-54
2021/06/05 10:14:06;;;;;;;20.20;18.25;;;18.30;93.60;;;;;;5038885;28;20106;-53
2021/06/05 10:16:33;;;;;;;18.20;16.50;;;18.40;93.60;;;;;;5039786;28;20156;-53
2021/06/05 10:19:22;;;;;;;15.52;13.98;;;18.30;93.60;;;;;;5042445;28;20103;-53
2021/06/05 10:21:48;;;;;;;16.45;14.85;;;18.30;93.50;;;;;;5040326;28;20045;-54
2021/06/05 10:24:43;;;;;;;17.67;15.88;;;18.30;93.60;;;;;;5037271;28;20131;-55
2021/06/05 10:27:23;;;;;;;15.90;14.40;;;18.30;93.70;;;;;;4997401;28;20123;-52
2021/06/05 10:30:19;;;;;;;16.23;14.63;;;18.30;94.10;;;;;;5035926;28;20045;-53
2021/06/05 10:32:45;;;;;;;16.02;14.43;;;18.30;93.90;;;;;;5022521;28;20265;-53
2021/06/05 10:35:30;;;;;;;15.60;14.10;;;18.20;93.80;;;;;;5039722;28;20073;-54
2021/06/05 10:38:07;;;;;;;17.58;15.45;;;18.20;93.60;;;;;;5024484;28;20087;-54
2021/06/05 10:40:35;;;;;;;15.98;14.40;;;18.20;93.70;;;;;;5037673;28;20045;-53
2021/06/05 10:43:05;;;;;;;16.60;14.90;;;18.20;93.80;;;;;;5044097;28;20083;-53
2021/06/05 10:45:33;;;;;;;16.90;15.20;;;18.20;93.80;;;;;;5042677;28;20091;-53
2021/06/05 10:47:58;;;;;;;16.83;15.15;;;18.20;93.80;;;;;;5043131;28;20037;-54
2021/06/05 10:50:40;;;;;;;16.85;15.25;;;18.20;93.70;;;;;;5040483;28;20048;-53
2021/06/05 10:53:19;;;;;;;16.23;14.52;;;18.20;93.70;;;;;;5044270;28;20132;-52
2021/06/05 10:56:02;;;;;;;18.85;16.98;;;18.20;93.60;;;;;;5042416;28;20493;-54
2021/06/05 10:58:46;;;;;;;19.38;17.15;;;18.10;93.60;;;;;;5036488;28;20440;-54
2021/06/05 11:01:38;;;;;;;21.35;19.23;;;18.10;93.60;;;;;;5043212;28;20536;-52
2021/06/05 11:04:07;;;;;;;22.98;20.58;;;18.00;93.60;;;;;;5036413;28;20083;-53
2021/06/05 11:06:55;;;;;;;23.23;20.73;;;18.10;93.80;;;;;;5045597;28;20048;-54
2021/06/05 11:09:24;;;;;;;22.05;19.73;;;18.00;93.90;;;;;;5044816;28;20587;-51
2021/06/05 11:11:51;;;;;;;24.52;21.50;;;18.00;93.90;;;;;;5046826;28;20041;-51
2021/06/05 11:14:19;;;;;;;24.88;20.73;;;17.90;94.00;;;;;;5045979;28;20049;-54
2021/06/05 11:16:57;;;;;;;24.45;20.83;;;17.90;93.90;;;;;;5045497;28;20041;-50
2021/06/05 11:19:40;;;;;;;22.92;20.38;;;17.80;94.10;;;;;;5047088;28;20044;-53
2021/06/05 11:22:16;;;;;;;22.15;18.73;;;17.90;94.00;;;;;;5047075;28;20041;-52
2021/06/05 11:24:44;;;;;;;23.33;20.60;;;17.80;93.70;;;;;;5046763;28;20090;-54
2021/06/05 11:27:31;;;;;;;23.77;20.48;;;17.80;94.00;;;;;;5048151;28;20090;-54
2021/06/05 11:29:59;;;;;;;24.48;21.85;;;17.90;94.00;;;;;;5047457;28;20090;-50
2021/06/05 11:32:56;;;;;;;24.08;20.70;;;17.80;94.00;;;;;;5048006;28;20049;-52
2021/06/05 11:35:46;;;;;;;27.33;23.45;;;17.90;94.10;;;;;;5034558;28;20052;-54
2021/06/05 11:38:19;;;;;;;26.13;22.88;;;17.90;94.20;;;;;;5043433;28;20484;-53
2021/06/05 11:40:49;;;;;;;29.17;23.58;;;17.90;94.00;;;;;;5045997;28;20055;-51
2021/06/05 11:43:27;;;;;;;29.80;24.27;;;17.90;93.90;;;;;;5045804;28;20472;-54
2021/06/05 11:46:31;;;;;;;32.13;25.20;;;17.90;93.90;;;;;;5046680;28;20094;-51
2021/06/05 11:49:02;;;;;;;29.65;25.58;;;17.80;93.90;;;;;;5039006;28;20049;-52
2021/06/05 11:51:29;;;;;;;32.70;25.70;;;17.80;93.90;;;;;;5045666;28;20041;-53
2021/06/05 11:54:18;;;;;;;35.08;26.33;;;17.80;93.80;;;;;;5044529;28;20090;-55
2021/06/05 11:56:51;;;;;;;33.33;27.08;;;17.80;93.80;;;;;;5038674;28;20178;-52
2021/06/05 11:59:32;;;;;;;32.15;26.45;;;17.80;93.80;;;;;;5046979;28;20041;-53
2021/06/05 12:02:29;;;;;;;34.53;27.20;;;17.90;93.90;;;;;;5039820;28;20037;-51
2021/06/05 12:05:17;;;;;;;33.13;27.77;;;17.90;94.00;;;;;;5027939;28;20040;-54
2021/06/05 12:07:43;;;;;;;31.13;25.15;;;17.90;94.10;;;;;;5044733;28;20045;-52
2021/06/05 12:10:22;;;;;;;38.78;25.95;;;17.90;94.00;;;;;;5044036;28;20179;-54
2021/06/05 12:12:49;;;;;;;41.40;27.67;;;17.90;94.00;;;;;;5045839;28;20040;-51
2021/06/05 12:15:26;;;;;;;31.92;26.02;;;17.90;94.10;;;;;;5023309;28;20037;-53
2021/06/05 12:17:59;;;;;;;33.30;26.55;;;18.00;94.10;;;;;;5044920;28;20124;-53
2021/06/05 12:20:47;;;;;;;33.80;27.55;;;17.90;94.10;;;;;;5025365;28;20076;-53
2021/06/05 12:23:32;;;;;;;33.75;26.83;;;17.90;94.10;;;;;;5029176;28;20037;-55
2021/06/05 12:26:19;;;;;;;34.10;27.73;;;17.90;93.90;;;;;;5046337;28;20064;-53
2021/06/05 12:28:48;;;;;;;38.55;29.20;;;17.80;93.80;;;;;;5046335;28;20033;-53
2021/06/05 12:31:20;;;;;;;42.05;31.38;;;17.80;93.90;;;;;;5036645;28;20041;-54
2021/06/05 12:34:11;;;;;;;41.15;29.23;;;17.80;93.80;;;;;;5041189;28;20042;-54
2021/06/05 12:36:45;;;;;;;39.92;30.20;;;17.70;93.60;;;;;;5044698;28;20132;-55
2021/06/05 12:39:23;;;;;;;43.65;30.33;;;17.60;93.70;;;;;;5048605;28;20411;-55
2021/06/05 12:41:50;;;;;;;41.45;28.73;;;17.60;93.80;;;;;;5051803;28;20440;-55
2021/06/05 12:44:22;;;;;;;42.00;29.73;;;17.60;93.80;;;;;;5050244;28;20045;-53
2021/06/05 12:46:48;;;;;;;39.78;28.25;;;17.50;93.80;;;;;;5051033;28;20041;-54
2021/06/05 12:49:16;;;;;;;39.33;27.50;;;17.50;93.90;;;;;;5043304;28;20820;-54